Latest Weather Observations for Kingaroy

IDQ60801

Issued at 8:13 am EST Tuesday 16 April 2024 (issued every 10 minutes, with the page automatically refreshed every 10 minutes)

About weather observations | Map of weather stations | Latest weather observations for QLD | Other Formats
Station Details ID: 040922 Name: KINGAROY AIRPORT Lat: -26.57 Lon: 151.84 Height: 433.67 m
Data from the previous 72 hours. | See also: Recent months at Kingaroy
Date/Time
EST
Temp
°C
App
Temp
°C
Dew
Point
°C
Rel
Hum
%
Delta-T
°C
Wind Press
QNH
hPa
Press
MSL
hPa
Rain since
9am
mm
Dir  Spd
km/h
Gust
km/h
Spd
kts
Gust
kts
16/08:00am 15.4 17.2 15.4 100 0.0 CALM 0 0 0 0 1025.4 1024.0 0.2
16/07:30am 14.1 15.4 14.1 100 0.0 CALM 0 0 0 0 1025.1 1023.7 0.2
16/07:10am 13.5 14.6 13.5 100 0.0 CALM 0 0 0 0 1024.9 1023.5 0.2
16/07:00am 13.2 14.2 13.2 100 0.0 CALM 0 0 0 0 1024.9 1023.5 0.2
16/06:54am 13.1 14.1 13.1 100 0.0 CALM 0 0 0 0 1024.8 1023.3 0.2
16/06:30am 12.4 13.2 12.4 100 0.0 CALM 0 0 0 0 1024.5 1023.0 0.0
16/06:00am 12.7 13.5 12.7 100 0.0 CALM 0 0 0 0 1024.3 1022.8 0.0
16/05:30am 12.9 13.8 12.9 100 0.0 CALM 0 0 0 0 1024.2 1022.7 0.0
16/05:00am 13.1 14.1 13.1 100 0.0 CALM 0 0 0 0 1023.9 1022.4 0.0
16/04:30am 13.1 14.1 13.1 100 0.0 CALM 0 0 0 0 1023.8 1022.3 0.0
16/04:00am 12.6 13.4 12.6 100 0.0 CALM 0 0 0 0 1023.8 1022.3 0.0
16/03:46am 12.9 13.8 12.9 100 0.0 CALM 0 0 0 0 1023.7 1022.2 0.0
16/03:30am 13.6 14.7 13.6 100 0.0 CALM 0 6 0 3 1023.7 1022.2 0.0
16/03:29am 13.6 14.4 13.6 100 0.0 SSE 2 6 1 3 1023.7 1022.2 0.0
16/03:28am 13.8 14.6 13.8 100 0.0 SSE 2 6 1 3 1023.7 1022.2 0.0
16/03:18am 14.1 14.3 14.1 100 0.0 SE 6 7 3 4 1023.7 1022.2 0.0
16/03:00am 13.7 13.7 13.7 100 0.0 ESE 6 9 3 5 1023.8 1022.3 0.0
16/02:58am 13.6 13.6 13.6 100 0.0 ESE 6 9 3 5 1023.9 1022.4 0.0
16/02:30am 13.5 14.6 13.5 100 0.0 CALM 0 0 0 0 1023.9 1022.4 0.0
16/02:00am 13.6 13.6 13.6 100 0.0 S 6 7 3 4 1024.0 1022.5 0.0
16/01:30am 13.8 14.2 13.8 100 0.0 S 4 9 2 5 1024.2 1022.7 0.0
16/01:00am 14.2 14.4 14.2 100 0.0 S 6 9 3 5 1024.4 1022.9 0.0
16/12:30am 14.5 14.2 14.5 100 0.0 S 9 9 5 5 1024.5 1023.0 0.0
16/12:00am 15.3 17.0 15.3 100 0.0 CALM 0 0 0 0 1024.6 1023.1 0.0
 
Date/Time
EST
Temp
°C
App
Temp
°C
Dew
Point
°C
Rel
Hum
%
Delta-T
°C
Wind Press
QNH
hPa
Press
MSL
hPa
Rain since
9am
mm
Dir  Spd
km/h
Gust
km/h
Spd
kts
Gust
kts
15/11:30pm 16.4 18.2 16.4 100 0.0 E 2 6 1 3 1024.7 1023.2 0.0
15/11:00pm 16.7 17.8 16.5 99 0.1 E 6 7 3 4 1025.1 1023.7 0.0
15/10:30pm 17.5 18.6 17.0 97 0.3 E 7 9 4 5 1025.3 1023.9 0.0
15/10:00pm 17.8 18.9 17.2 96 0.4 ENE 7 11 4 6 1025.4 1024.0 0.0
15/09:30pm 17.8 19.1 17.2 96 0.4 E 6 7 3 4 1025.5 1024.1 0.0
15/09:00pm 18.5 19.7 16.8 90 1.0 ENE 6 9 3 5 1025.3 1023.9 0.0
15/08:30pm 18.9 19.9 16.9 88 1.2 ENE 7 13 4 7 1025.2 1023.8 0.0
15/08:00pm 19.3 19.7 16.3 83 1.8 E 9 13 5 7 1025.0 1023.6 0.0
15/07:30pm 19.5 20.1 15.8 79 2.2 E 7 11 4 6 1024.7 1023.2 0.0
15/07:00pm 19.9 20.3 16.2 79 2.3 E 9 11 5 6 1024.5 1023.0 0.0
15/06:30pm 19.7 20.2 15.6 77 2.5 ESE 7 9 4 5 1024.2 1022.7 0.0
15/06:00pm 21.5 21.5 15.1 67 3.8 E 9 13 5 7 1024.0 1022.5 0.0
15/05:30pm 22.6 22.6 15.2 63 4.5 E 9 17 5 9 1023.7 1022.2 0.0
15/05:00pm 23.4 23.0 15.2 60 5.0 ESE 11 19 6 10 1023.3 1021.9 0.0
15/04:30pm 24.6 24.1 13.8 51 6.5 E 9 13 5 7 1023.0 1021.6 0.0
15/04:00pm 24.8 23.7 13.0 47 7.0 E 11 15 6 8 1022.8 1021.3 0.0
15/03:30pm 24.4 23.6 13.0 49 6.7 E 9 13 5 7 1022.8 1021.3 0.0
15/03:00pm 25.7 24.7 13.5 46 7.3 ENE 11 19 6 10 1022.8 1021.3 0.0
15/02:30pm 25.9 25.1 14.1 48 7.1 E 11 19 6 10 1022.8 1021.3 0.0
15/02:00pm 24.8 24.0 14.0 51 6.5 E 11 19 6 10 1022.9 1021.5 0.0
15/01:30pm 25.9 25.4 13.7 47 7.3 ESE 9 15 5 8 1023.1 1021.7 0.0
15/01:00pm 25.3 25.3 15.3 54 6.1 E 9 15 5 8 1023.4 1022.0 0.0
15/12:30pm 24.4 24.0 14.2 53 6.1 NNE 9 17 5 9 1023.8 1022.3 0.0
15/12:00pm 24.1 24.4 15.9 60 5.0 E 9 15 5 8 1024.2 1022.7 0.0
15/11:30am 23.6 23.3 14.3 56 5.6 NE 9 13 5 7 1024.7 1023.2 0.0
15/11:00am 23.3 23.3 15.1 60 5.0 ENE 9 17 5 9 1025.2 1023.8 0.0
15/10:30am 22.9 22.1 15.2 62 4.7 E 13 20 7 11 1025.5 1024.1 0.0
15/10:00am 22.7 22.5 15.8 65 4.2 E 11 15 6 8 1025.6 1024.2 0.0
15/09:30am 21.0 21.4 16.4 75 2.8 ESE 9 15 5 8 1025.5 1024.1 0.0
15/09:00am 20.2 20.8 16.8 81 2.1 E 9 15 5 8 1025.8 1024.4 0.0
15/08:30am 18.8 19.2 17.3 91 0.9 SSE 11 15 6 8 1025.8 1024.4 0.0
15/08:00am 17.0 19.0 17.0 100 0.0 SSE 2 13 1 7 1025.5 1024.1 0.0
15/07:30am 13.9 15.1 13.9 100 0.0 CALM 0 0 0 0 1025.2 1023.8 0.0
15/07:00am 11.7 12.2 11.7 100 0.0 CALM 0 0 0 0 1025.2 1023.8 0.0
15/06:30am 10.8 11.1 10.8 100 0.0 CALM 0 0 0 0 1024.9 1023.5 0.0
15/06:00am 10.6 10.8 10.6 100 0.0 CALM 0 0 0 0 1024.8 1023.3 0.0
15/05:57am 10.6 10.8 10.6 100 0.0 CALM 0 0 0 0 1024.8 1023.3 0.0
15/05:39am 10.6 10.8 10.6 100 0.0 CALM 0 0 0 0 1024.7 1023.2 0.0
15/05:30am 10.5 10.7 10.5 100 0.0 CALM 0 0 0 0 1024.7 1023.2 0.0
15/05:00am 11.0 11.3 11.0 100 0.0 CALM 0 0 0 0 1024.4 1022.9 0.0
15/04:30am 11.2 11.6 11.2 100 0.0 CALM 0 0 0 0 1024.4 1022.9 0.0
15/04:00am 11.2 11.6 11.2 100 0.0 CALM 0 0 0 0 1024.3 1022.8 0.0
15/03:30am 11.7 12.2 11.7 100 0.0 CALM 0 0 0 0 1024.3 1022.8 0.0
15/03:16am 11.5 12.0 11.5 100 0.0 CALM 0 0 0 0 1024.4 1022.9 0.0
15/03:00am 11.6 12.1 11.6 100 0.0 CALM 0 0 0 0 1024.5 1023.0 0.0
15/02:58am 11.6 12.1 11.6 100 0.0 CALM 0 0 0 0 1024.5 1023.0 0.0
15/02:30am 12.6 12.3 12.6 100 0.0 S 6 6 3 3 1024.4 1022.9 0.0
15/02:00am 12.5 12.1 12.5 100 0.0 SSE 6 7 3 4 1024.4 1022.9 0.0
15/01:30am 12.6 13.0 12.6 100 0.0 SSE 2 7 1 4 1024.6 1023.1 0.0
15/01:00am 13.0 13.9 13.0 100 0.0 CALM 0 0 0 0 1025.0 1023.6 0.0
15/12:30am 13.4 13.3 13.2 99 0.1 SSE 6 6 3 3 1025.2 1023.8 0.0
15/12:00am 13.2 13.0 13.0 99 0.1 SE 6 7 3 4 1025.3 1023.9 0.0
 
Date/Time
EST
Temp
°C
App
Temp
°C
Dew
Point
°C
Rel
Hum
%
Delta-T
°C
Wind Press
QNH
hPa
Press
MSL
hPa
Rain since
9am
mm
Dir  Spd
km/h
Gust
km/h
Spd
kts
Gust
kts
14/11:30pm 14.5 15.5 14.3 99 0.1 SE 2 7 1 4 1025.1 1023.7 0.0
14/11:00pm 14.8 15.0 14.2 96 0.3 S 6 9 3 5 1025.2 1023.8 0.0
14/10:30pm 15.5 17.1 14.9 96 0.4 CALM 0 0 0 0 1025.2 1023.8 0.0
14/10:00pm 16.7 17.7 15.4 92 0.8 E 4 7 2 4 1025.3 1023.9 0.0
14/09:30pm 16.9 17.8 15.1 89 1.1 NE 4 7 2 4 1025.0 1023.6 0.0
14/09:00pm 18.0 18.4 15.4 85 1.5 E 7 13 4 7 1024.8 1023.3 0.0
14/08:30pm 18.4 18.4 15.3 82 1.9 ENE 9 13 5 7 1024.5 1023.0 0.0
14/08:00pm 18.5 18.9 15.4 82 1.8 ENE 7 13 4 7 1024.2 1022.7 0.0
14/07:30pm 18.9 19.2 15.0 78 2.3 E 7 13 4 7 1024.0 1022.5 0.0
14/07:00pm 19.3 19.0 14.3 73 2.9 E 9 13 5 7 1023.7 1022.2 0.0
14/06:30pm 20.4 20.0 14.1 67 3.7 E 9 13 5 7 1023.3 1021.9 0.0
14/06:00pm 21.2 20.7 13.9 63 4.3 E 9 13 5 7 1023.0 1021.6 0.0
14/05:30pm 22.3 21.4 13.6 58 5.1 E 11 15 6 8 1022.7 1021.2 0.0
14/05:00pm 23.5 21.7 12.2 49 6.5 E 13 19 7 10 1022.4 1020.9 0.0
14/04:30pm 24.5 22.6 10.4 41 8.0 E 11 17 6 9 1022.2 1020.7 0.0
14/04:00pm 25.6 24.1 10.6 39 8.5 E 9 19 5 10 1021.9 1020.4 0.0
14/03:30pm 25.7 24.1 10.3 38 8.7 SE 9 15 5 8 1021.7 1020.2 0.0
14/03:00pm 26.0 24.4 11.4 40 8.4 SE 11 17 6 9 1021.8 1020.3 0.0
14/02:30pm 25.8 23.2 9.2 35 9.2 SE 13 20 7 11 1021.8 1020.3 0.0
14/02:00pm 24.4 22.7 9.9 40 8.1 SSE 9 15 5 8 1022.1 1020.6 0.0
14/01:30pm 25.9 24.9 12.4 43 7.9 E 9 20 5 11 1022.2 1020.7 0.0
14/01:00pm 25.4 24.0 12.3 44 7.6 SE 11 17 6 9 1022.4 1020.9 0.0
14/12:30pm 24.8 23.8 12.4 46 7.3 SE 9 15 5 8 1022.7 1021.2 0.0
14/12:00pm 24.8 25.0 14.6 53 6.2 ENE 7 15 4 8 1023.3 1021.9 0.0
14/11:30am 24.0 22.8 11.7 46 7.1 ESE 9 13 5 7 1023.9 1022.4 0.0
14/11:00am 23.5 22.9 13.4 53 6.0 E 9 15 5 8 1024.2 1022.7 0.0
14/10:30am 22.6 22.1 13.9 58 5.2 ENE 9 17 5 9 1024.5 1023.0 0.0
14/10:00am 22.6 22.1 13.9 58 5.1 ENE 9 15 5 8 1024.8 1023.3 0.0
14/09:30am 21.6 21.9 15.9 70 3.5 ESE 9 15 5 8 1024.9 1023.5 0.0
14/09:00am 20.5 20.9 16.3 77 2.6 E 9 15 5 8 1025.2 1023.8 0.0
14/08:30am 18.3 21.2 18.3 100 0.0 CALM 0 6 0 3 1024.9 1023.5 0.0
14/08:00am 15.3 17.0 15.3 100 0.0 CALM 0 0 0 0 1024.8 1023.3 0.0
14/07:30am 13.2 14.2 13.2 100 0.0 CALM 0 0 0 0 1024.5 1023.0 0.0
14/07:25am 13.1 14.1 13.1 100 0.0 CALM 0 0 0 0 1024.5 1023.0 0.0
14/07:15am 12.3 13.0 12.3 100 0.0 CALM 0 0 0 0 1024.4 1022.9 0.0
14/07:00am 11.5 12.0 11.5 100 0.0 CALM 0 0 0 0 1024.3 1022.8 0.0
14/06:56am 11.4 11.8 11.4 100 0.0 CALM 0 6 0 3 1024.2 1022.7 0.0
14/06:30am 10.4 10.6 10.4 100 0.0 CALM 0 0 0 0 1024.0 1022.5 0.0
14/06:23am 10.4 10.6 10.4 100 0.0 CALM 0 0 0 0 1023.9 1022.4 0.0
14/06:00am 10.4 10.6 10.4 100 0.0 CALM 0 0 0 0 1023.5 1022.1 0.0
14/05:46am 10.7 10.9 10.7 100 0.0 CALM 0 0 0 0 1023.5 1022.1 0.0
14/05:39am 10.9 11.2 10.9 100 0.0 CALM 0 0 0 0 1023.5 1022.1 0.0
14/05:30am 10.9 11.2 10.9 100 0.0 CALM 0 0 0 0 1023.5 1022.1 0.0
14/05:00am 11.2 11.6 11.2 100 0.0 CALM 0 0 0 0 1023.3 1021.9 0.0
14/04:41am 11.2 11.6 11.2 100 0.0 CALM 0 0 0 0 1023.2 1021.8 0.0
14/04:33am 11.1 11.5 11.1 100 0.0 CALM 0 0 0 0 1023.1 1021.7 0.0
14/04:30am 11.2 11.6 11.2 100 0.0 CALM 0 0 0 0 1023.0 1021.6 0.0
14/04:22am 11.4 11.8 11.4 100 0.0 CALM 0 0 0 0 1023.0 1021.6 0.0
14/04:18am 11.6 12.1 11.6 100 0.0 CALM 0 0 0 0 1023.0 1021.6 0.0
14/04:17am 11.6 12.1 11.6 100 0.0 CALM 0 0 0 0 1023.0 1021.6 0.0
14/04:00am 11.6 12.1 11.6 100 0.0 CALM 0 0 0 0 1022.9 1021.5 0.0
14/03:38am 11.5 12.0 11.5 100 0.0 CALM 0 0 0 0 1022.9 1021.5 0.0
14/03:30am 11.5 12.0 11.5 100 0.0 CALM 0 0 0 0 1022.8 1021.3 0.0
14/03:25am 11.6 12.1 11.6 100 0.0 CALM 0 0 0 0 1022.9 1021.5 0.0
14/03:00am 12.0 12.6 12.0 100 0.0 CALM 0 0 0 0 1022.8 1021.3 0.0
14/02:30am 12.2 12.1 12.2 100 0.0 SE 4 6 2 3 1022.8 1021.3 0.0
14/02:00am 13.1 12.9 13.1 100 0.0 SSE 6 7 3 4 1022.8 1021.3 0.0
14/01:30am 13.1 12.9 13.1 100 0.0 SSE 6 7 3 4 1023.0 1021.6 0.0
14/01:00am 13.1 12.9 13.1 100 0.0 S 6 7 3 4 1023.0 1021.6 0.0
14/12:30am 12.8 12.5 12.6 99 0.1 S 6 9 3 5 1023.2 1021.8 0.0
14/12:00am 13.6 13.9 13.4 99 0.1 S 4 7 2 4 1023.4 1022.0 0.0
 
Date/Time
EST
Temp
°C
App
Temp
°C
Dew
Point
°C
Rel
Hum
%
Delta-T
°C
Wind Press
QNH
hPa
Press
MSL
hPa
Rain since
9am
mm
Dir  Spd
km/h
Gust
km/h
Spd
kts
Gust
kts
13/11:30pm 14.2 15.5 14.0 99 0.1 CALM 0 7 0 4 1023.4 1022.0 0.0
13/11:00pm 14.7 15.9 13.7 94 0.6 CALM 0 4 0 2 1023.5 1022.1 0.0
13/10:30pm 16.4 17.1 15.6 95 0.5 ENE 6 9 3 5 1023.5 1022.1 0.0
13/10:00pm 16.7 18.5 15.6 93 0.7 CALM 0 0 0 0 1023.5 1022.1 0.0
13/09:30pm 17.2 18.2 15.4 89 1.1 E 4 7 2 4 1023.4 1022.0 0.0
13/09:00pm 17.5 17.9 15.3 87 1.3 E 7 11 4 6 1023.3 1021.9 0.0
13/08:30pm 17.9 18.5 15.2 84 1.6 ENE 6 11 3 6 1023.1 1021.7 0.0
13/08:00pm 18.1 18.0 15.0 82 1.8 ENE 9 15 5 8 1022.7 1021.2 0.0
13/07:30pm 18.7 18.5 14.6 77 2.4 ENE 9 15 5 8 1022.4 1020.9 0.0
13/07:00pm 19.2 18.4 14.0 72 3.0 ENE 11 17 6 9 1022.2 1020.7 0.0
13/06:30pm 19.7 18.9 13.9 69 3.4 ENE 11 17 6 9 1021.8 1020.3 0.0
13/06:00pm 18.4 17.4 12.4 68 3.4 E 9 11 5 6 1021.3 1019.8 0.0
13/05:30pm 21.0 20.5 11.9 56 5.2 E 6 7 3 4 1020.9 1019.5 0.0
13/05:00pm 23.6 22.4 10.3 43 7.4 E 7 13 4 7 1020.7 1019.2 0.0
13/04:30pm 24.2 22.2 10.1 41 7.9 ESE 11 17 6 9 1020.3 1018.8 0.0
13/04:00pm 24.7 23.1 10.2 40 8.2 E 9 19 5 10 1020.0 1018.5 0.0
13/03:30pm 25.0 22.7 10.5 40 8.2 ENE 13 22 7 12 1019.9 1018.4 0.0
13/03:00pm 25.2 23.5 8.2 34 9.3 E 7 19 4 10 1019.9 1018.4 0.0
13/02:30pm 25.3 23.5 10.7 40 8.3 ESE 11 17 6 9 1020.1 1018.6 0.0
13/02:00pm 25.3 23.6 10.0 38 8.6 E 9 17 5 9 1020.3 1018.8 0.0
13/01:30pm 25.7 24.0 11.1 40 8.4 SE 11 20 6 11 1020.5 1019.0 0.0
13/01:00pm 25.0 23.1 10.5 40 8.2 SE 11 17 6 9 1021.0 1019.6 0.0
13/12:30pm 24.2 22.3 11.9 46 7.1 SSE 13 19 7 10 1021.4 1019.9 0.0
13/12:00pm 23.9 22.8 13.2 51 6.3 ESE 11 20 6 11 1021.8 1020.3 0.0
13/11:30am 23.5 22.6 13.7 54 5.8 E 11 19 6 10 1022.3 1020.8 0.0
13/11:00am 23.1 22.8 14.4 58 5.2 ESE 9 17 5 9 1022.9 1021.5 0.0
13/10:30am 22.4 21.3 13.2 56 5.4 E 11 19 6 10 1023.2 1021.8 0.0
13/10:00am 22.3 22.5 14.7 62 4.6 ESE 7 13 4 7 1023.2 1021.8 0.0
13/09:30am 21.2 21.6 16.2 73 3.1 E 9 15 5 8 1023.4 1022.0 0.0
13/09:03am 20.2 20.9 16.0 77 2.6 ESE 7 13 4 7 1023.3 1021.9 0.0
13/09:00am 20.3 21.5 17.3 83 1.9 SE 7 9 4 5 1023.3 1021.9 0.0
13/08:30am 18.3 19.5 18.3 100 0.0 SE 9 11 5 6 1023.1 1021.7 0.0

Other formats

Comma delimited format used in spreadsheet applications
http://www.bom.gov.au/fwo/IDQ60801/IDQ60801.94549.axf

JavaScript Object Notation format (JSON) in row-major order
http://www.bom.gov.au/fwo/IDQ60801/IDQ60801.94549.json

Data quality

Most of these data are generated automatically and are frequently updated. Quality checks on data are not normally performed. It is possible for incorrect values to appear. Refer to information at About Latest Weather Observations and please check the disclaimer before using these data.